Time;durP1;ratioP1;P1;durP2;ratioP2;P2;SDS_P1;SDS_P2;PMS_P1;PMS_P2;Temp;Humidity;BMP_temperature;BMP_pressure;BME280_temperature;BME280_humidity;BME280_pressure;Samples;Min_cycle;Max_cycle;Signal;HPM_P1;HPM_P2
2022/08/05 00:02:09;;;;;;;11.65;5.97;;;18.10;99.90;;;;;;5053150;28;20033;-68
2022/08/05 00:04:35;;;;;;;14.38;6.10;;;18.10;99.90;;;;;;5052155;28;20056;-67
2022/08/05 00:07:00;;;;;;;11.02;6.10;;;18.20;99.90;;;;;;5055715;28;20045;-67
2022/08/05 00:09:26;;;;;;;12.70;6.63;;;18.10;99.90;;;;;;5055783;28;20037;-65
2022/08/05 00:11:51;;;;;;;12.35;5.93;;;18.10;99.90;;;;;;5053485;28;20481;-66
2022/08/05 00:14:17;;;;;;;11.40;6.18;;;18.10;99.90;;;;;;5061670;28;20513;-65
2022/08/05 00:16:44;;;;;;;10.15;6.75;;;18.10;99.90;;;;;;5060480;28;20045;-65
2022/08/05 00:19:09;;;;;;;16.05;6.20;;;18.10;99.90;;;;;;5041822;28;20155;-66
2022/08/05 00:21:35;;;;;;;12.85;6.10;;;18.10;99.90;;;;;;5053419;28;20179;-65
2022/08/05 00:24:01;;;;;;;10.45;5.80;;;18.10;99.90;;;;;;5052631;28;20029;-66
2022/08/05 00:26:26;;;;;;;14.05;6.25;;;18.10;99.90;;;;;;5054360;28;20052;-68
2022/08/05 00:28:52;;;;;;;10.30;5.55;;;18.00;99.90;;;;;;5054123;28;20082;-67
2022/08/05 00:31:18;;;;;;;18.13;5.65;;;18.00;99.90;;;;;;5056628;28;20499;-68
2022/08/05 00:33:43;;;;;;;14.30;5.82;;;18.00;99.90;;;;;;5053289;28;20040;-68
2022/08/05 00:36:09;;;;;;;10.80;5.55;;;17.90;99.90;;;;;;5060091;28;20452;-66
2022/08/05 00:38:35;;;;;;;16.75;6.35;;;18.00;99.90;;;;;;5071188;28;20044;-65
2022/08/05 00:41:00;;;;;;;9.73;5.40;;;18.00;99.90;;;;;;5049036;28;20033;-66
2022/08/05 00:43:26;;;;;;;10.48;5.38;;;17.90;99.90;;;;;;5063452;28;20033;-68
2022/08/05 00:45:52;;;;;;;11.25;5.45;;;17.90;99.90;;;;;;5057862;28;20037;-70
2022/08/05 00:48:20;;;;;;;9.52;5.70;;;17.90;99.90;;;;;;5059027;28;20089;-69
2022/08/05 00:50:48;;;;;;;11.65;5.57;;;17.90;99.90;;;;;;5062210;28;20079;-68
2022/08/05 00:53:16;;;;;;;10.15;5.72;;;17.90;99.90;;;;;;5065100;28;20040;-66
2022/08/05 00:55:42;;;;;;;11.50;5.85;;;17.90;99.90;;;;;;5039008;28;20119;-65
2022/08/05 00:58:09;;;;;;;10.93;5.20;;;17.90;99.90;;;;;;5047656;28;20094;-66
2022/08/05 01:00:35;;;;;;;11.75;5.90;;;17.90;99.90;;;;;;5059481;28;20094;-66
2022/08/05 01:03:01;;;;;;;10.20;6.05;;;17.90;99.90;;;;;;5056438;28;20424;-65
2022/08/05 01:05:26;;;;;;;14.48;5.93;;;17.90;99.90;;;;;;5066408;28;20047;-66
2022/08/05 01:07:52;;;;;;;14.27;6.30;;;17.80;99.90;;;;;;5052406;28;20536;-65
2022/08/05 01:10:21;;;;;;;10.52;6.30;;;17.90;99.90;;;;;;5059776;28;20032;-65
2022/08/05 01:12:54;;;;;;;11.80;6.80;;;17.80;99.90;;;;;;5070964;28;20132;-65
2022/08/05 01:15:24;;;;;;;15.35;6.60;;;17.80;99.90;;;;;;5060237;28;20533;-66
2022/08/05 01:17:55;;;;;;;12.02;6.38;;;17.80;99.90;;;;;;5069585;28;20127;-65
2022/08/05 01:20:43;;;;;;;11.52;6.10;;;17.80;99.90;;;;;;5058853;28;20044;-65
2022/08/05 01:23:39;;;;;;;9.98;6.05;;;17.70;99.90;;;;;;5075106;28;20052;-65
2022/08/05 01:26:20;;;;;;;11.75;6.07;;;17.70;99.90;;;;;;5036749;28;20056;-65
2022/08/05 01:28:59;;;;;;;12.38;6.55;;;17.70;99.90;;;;;;5072010;28;20603;-67
2022/08/05 01:31:43;;;;;;;13.15;7.20;;;17.70;99.90;;;;;;5053861;28;20048;-65
2022/08/05 01:34:10;;;;;;;16.17;7.28;;;17.70;99.90;;;;;;5053736;28;20056;-66
2022/08/05 01:36:43;;;;;;;15.85;6.75;;;17.70;99.90;;;;;;5054645;28;20052;-65
2022/08/05 01:39:11;;;;;;;11.48;6.65;;;17.60;99.90;;;;;;5064073;28;20029;-65
2022/08/05 01:41:38;;;;;;;14.52;6.38;;;17.70;99.90;;;;;;5057062;28;20131;-65
2022/08/05 01:44:06;;;;;;;14.70;6.57;;;17.60;99.90;;;;;;5063156;28;20064;-66
2022/08/05 01:46:34;;;;;;;10.15;6.38;;;17.60;99.90;;;;;;5050211;28;20032;-65
2022/08/05 01:49:01;;;;;;;12.82;6.65;;;17.50;99.90;;;;;;5059741;28;20175;-65
2022/08/05 01:51:29;;;;;;;12.45;6.75;;;17.60;99.90;;;;;;5063254;28;20045;-66
2022/08/05 01:53:57;;;;;;;11.93;6.13;;;17.60;99.90;;;;;;5074250;28;20051;-66
2022/08/05 01:56:29;;;;;;;16.25;6.55;;;17.60;99.90;;;;;;5064487;28;20113;-65
2022/08/05 01:58:56;;;;;;;11.68;6.53;;;17.60;99.90;;;;;;5058643;28;20037;-66
2022/08/05 02:01:24;;;;;;;11.98;5.97;;;17.50;99.90;;;;;;5058273;28;20048;-66
2022/08/05 02:03:52;;;;;;;10.13;6.15;;;17.50;99.90;;;;;;5061304;28;20394;-66
2022/08/05 02:06:18;;;;;;;15.38;5.97;;;17.40;99.90;;;;;;5064714;28;20525;-65
2022/08/05 02:08:44;;;;;;;12.55;6.25;;;17.60;99.90;;;;;;5059440;28;20546;-65
2022/08/05 02:11:12;;;;;;;9.23;5.90;;;17.50;99.90;;;;;;5061686;28;20063;-66
2022/08/05 02:13:46;;;;;;;16.35;6.50;;;17.40;99.90;;;;;;5054581;28;20044;-66
2022/08/05 02:16:47;;;;;;;14.40;6.65;;;17.50;99.90;;;;;;5053179;28;20047;-66
2022/08/05 02:19:34;;;;;;;12.77;6.75;;;17.30;99.90;;;;;;5057744;28;20045;-66
2022/08/05 02:22:15;;;;;;;15.77;6.85;;;17.30;99.90;;;;;;5063258;28;20104;-66
2022/08/05 02:24:46;;;;;;;12.45;6.70;;;17.30;99.90;;;;;;5058224;28;20111;-66
2022/08/05 02:27:13;;;;;;;14.07;7.45;;;17.30;99.90;;;;;;5076302;28;20082;-65
2022/08/05 02:29:43;;;;;;;12.45;7.03;;;17.30;99.90;;;;;;5063400;28;20045;-65
2022/08/05 02:32:10;;;;;;;12.10;6.82;;;17.30;99.90;;;;;;5058683;28;20487;-66
2022/08/05 02:34:36;;;;;;;13.70;6.90;;;17.30;99.90;;;;;;5062719;28;20060;-66
2022/08/05 02:37:07;;;;;;;12.18;7.03;;;17.30;99.90;;;;;;5059313;28;20037;-66
2022/08/05 02:39:35;;;;;;;15.00;7.25;;;17.30;99.90;;;;;;5052264;28;20049;-66
2022/08/05 02:42:02;;;;;;;14.23;6.95;;;17.20;99.90;;;;;;5058424;28;20396;-66
2022/08/05 02:44:30;;;;;;;14.10;7.20;;;17.30;99.90;;;;;;5060219;28;20402;-67
2022/08/05 02:46:57;;;;;;;12.52;7.80;;;17.30;99.90;;;;;;5059230;28;20607;-67
2022/08/05 02:49:26;;;;;;;14.85;7.45;;;17.20;99.90;;;;;;5062526;28;20045;-67
2022/08/05 02:51:53;;;;;;;15.38;7.65;;;17.10;99.90;;;;;;5065237;28;20089;-67
2022/08/05 02:54:21;;;;;;;13.68;7.65;;;17.20;99.90;;;;;;5060191;28;20055;-67
2022/08/05 02:56:47;;;;;;;14.23;7.35;;;17.30;99.90;;;;;;5067468;28;20105;-66
2022/08/05 02:59:16;;;;;;;15.48;7.65;;;17.10;99.90;;;;;;5077652;28;20391;-66
2022/08/05 03:01:43;;;;;;;15.35;7.85;;;17.20;99.90;;;;;;5060279;28;20037;-66
2022/08/05 03:04:12;;;;;;;15.00;8.00;;;17.10;99.90;;;;;;5056266;28;21031;-66
2022/08/05 03:06:40;;;;;;;10.23;6.70;;;17.20;99.90;;;;;;5056193;28;20044;-66
2022/08/05 03:09:06;;;;;;;14.38;7.63;;;17.10;99.90;;;;;;5056684;28;20079;-66
2022/08/05 03:11:32;;;;;;;11.65;7.10;;;17.20;99.90;;;;;;5056190;28;20079;-66
2022/08/05 03:13:57;;;;;;;16.20;7.45;;;17.10;99.90;;;;;;5060152;28;20099;-66
2022/08/05 03:16:23;;;;;;;12.25;7.43;;;17.20;99.90;;;;;;5056858;28;20087;-65
2022/08/05 03:18:48;;;;;;;11.65;7.20;;;17.10;99.90;;;;;;5056822;28;20087;-66
2022/08/05 03:21:14;;;;;;;15.57;7.05;;;17.20;99.90;;;;;;5057533;28;20309;-65
2022/08/05 03:23:42;;;;;;;12.30;6.65;;;17.20;99.90;;;;;;5057848;28;20033;-66
2022/08/05 03:26:08;;;;;;;17.63;6.70;;;17.20;99.90;;;;;;5058975;28;20040;-66
2022/08/05 03:28:34;;;;;;;16.33;6.82;;;17.20;99.90;;;;;;5058956;28;20039;-66
2022/08/05 03:31:01;;;;;;;14.02;7.25;;;17.10;99.90;;;;;;5064263;28;20036;-66
2022/08/05 03:33:27;;;;;;;12.02;6.75;;;17.10;99.90;;;;;;5059024;28;20052;-65
2022/08/05 03:35:57;;;;;;;14.95;7.10;;;17.20;99.90;;;;;;5058984;28;20430;-66
2022/08/05 03:38:24;;;;;;;11.77;6.90;;;17.10;99.90;;;;;;5058403;28;20044;-66
2022/08/05 03:40:51;;;;;;;11.48;6.97;;;17.00;99.90;;;;;;5057605;28;20085;-66
2022/08/05 03:43:18;;;;;;;11.50;6.65;;;17.00;99.90;;;;;;5058081;28;20048;-65
2022/08/05 03:45:43;;;;;;;13.93;6.07;;;17.10;99.90;;;;;;5057895;28;20036;-66
2022/08/05 03:48:09;;;;;;;16.50;6.72;;;17.10;99.90;;;;;;5057604;28;20045;-66
2022/08/05 03:50:39;;;;;;;12.00;6.80;;;17.10;99.90;;;;;;5062604;28;20040;-65
2022/08/05 03:53:13;;;;;;;16.20;6.45;;;17.10;99.90;;;;;;5059556;28;20037;-65
2022/08/05 03:55:49;;;;;;;13.55;6.82;;;17.10;99.90;;;;;;5060367;28;20082;-65
2022/08/05 03:58:17;;;;;;;19.23;7.53;;;17.00;99.90;;;;;;5062558;28;20045;-65
2022/08/05 04:00:44;;;;;;;16.85;7.53;;;17.00;99.90;;;;;;5057196;28;20041;-65
2022/08/05 04:03:11;;;;;;;15.93;7.57;;;16.90;99.90;;;;;;5059604;28;20041;-65
2022/08/05 04:05:38;;;;;;;11.50;7.00;;;16.90;99.90;;;;;;5056943;28;20041;-66
2022/08/05 04:08:06;;;;;;;13.90;7.90;;;16.80;99.90;;;;;;5044140;28;20036;-65
2022/08/05 04:10:33;;;;;;;12.25;6.95;;;16.90;99.90;;;;;;5060895;28;20052;-66
2022/08/05 04:13:00;;;;;;;11.85;7.70;;;16.90;99.90;;;;;;5056113;28;20472;-66
2022/08/05 04:15:26;;;;;;;13.93;8.30;;;16.80;99.90;;;;;;5058617;28;20115;-66
2022/08/05 04:17:53;;;;;;;13.70;7.30;;;16.80;99.90;;;;;;5054527;28;20045;-66
2022/08/05 04:20:21;;;;;;;12.07;7.30;;;16.70;99.90;;;;;;5057961;28;20033;-67
2022/08/05 04:22:46;;;;;;;14.20;7.72;;;16.80;99.90;;;;;;5061448;28;20044;-65
2022/08/05 04:25:12;;;;;;;12.02;7.32;;;16.70;99.90;;;;;;5054224;28;20036;-66
2022/08/05 04:27:38;;;;;;;12.32;7.43;;;16.70;99.90;;;;;;5058359;28;20075;-67
2022/08/05 04:30:06;;;;;;;15.48;7.72;;;16.80;99.90;;;;;;5058136;28;20163;-67
2022/08/05 04:32:31;;;;;;;14.05;8.13;;;16.70;99.90;;;;;;5055532;28;20137;-67
2022/08/05 04:34:57;;;;;;;14.05;7.68;;;16.80;99.90;;;;;;5060519;28;20095;-67
2022/08/05 04:37:22;;;;;;;16.75;7.95;;;16.80;99.90;;;;;;5054865;28;20117;-67
2022/08/05 04:39:48;;;;;;;11.88;7.93;;;16.70;99.90;;;;;;5056627;28;20037;-66
2022/08/05 04:42:14;;;;;;;11.23;7.78;;;16.70;99.90;;;;;;5058719;28;20056;-66
2022/08/05 04:44:39;;;;;;;16.27;7.78;;;16.60;99.90;;;;;;5053295;28;20539;-66
2022/08/05 04:47:05;;;;;;;20.88;8.05;;;16.80;99.90;;;;;;5055930;28;20048;-65
2022/08/05 04:49:31;;;;;;;12.55;7.82;;;16.80;99.90;;;;;;5057427;28;20041;-66
2022/08/05 04:51:56;;;;;;;14.23;8.57;;;16.70;99.90;;;;;;5064300;28;20121;-65
2022/08/05 04:54:25;;;;;;;14.63;8.55;;;16.80;99.90;;;;;;5059679;28;20138;-64
2022/08/05 04:56:52;;;;;;;17.13;9.48;;;16.80;99.90;;;;;;5059153;28;20121;-65
2022/08/05 04:59:19;;;;;;;18.40;9.18;;;16.60;99.90;;;;;;5058569;28;20179;-64
2022/08/05 05:01:45;;;;;;;17.67;9.50;;;16.80;99.90;;;;;;5064157;28;20072;-65
2022/08/05 05:04:10;;;;;;;16.52;8.45;;;16.70;99.90;;;;;;5053704;28;20441;-65
2022/08/05 05:06:36;;;;;;;15.35;9.63;;;16.60;99.90;;;;;;5056471;28;20040;-65
2022/08/05 05:09:02;;;;;;;16.25;9.02;;;16.70;99.90;;;;;;5054699;28;20044;-65
2022/08/05 05:11:28;;;;;;;13.38;8.90;;;16.80;99.90;;;;;;5060499;28;20506;-65
2022/08/05 05:13:53;;;;;;;15.93;8.93;;;16.80;99.90;;;;;;5059271;28;20030;-66
2022/08/05 05:16:19;;;;;;;13.50;8.65;;;16.70;99.90;;;;;;5072087;28;20054;-66
2022/08/05 05:18:44;;;;;;;17.05;8.20;;;16.70;99.90;;;;;;5061126;28;20036;-66
2022/08/05 05:21:10;;;;;;;14.98;7.93;;;16.70;99.90;;;;;;5059472;28;20063;-65
2022/08/05 05:23:35;;;;;;;13.90;7.45;;;16.80;99.90;;;;;;5061527;28;20033;-66
2022/08/05 05:26:01;;;;;;;16.33;8.18;;;16.80;99.90;;;;;;5059955;28;20104;-65
2022/08/05 05:28:26;;;;;;;15.55;7.93;;;16.90;99.90;;;;;;5064250;28;20044;-66
2022/08/05 05:30:52;;;;;;;13.60;7.78;;;16.80;99.90;;;;;;5064789;28;20411;-65
2022/08/05 05:33:18;;;;;;;16.48;8.18;;;16.70;99.90;;;;;;5073107;28;20033;-66
2022/08/05 05:35:45;;;;;;;15.40;7.95;;;16.80;99.90;;;;;;5070398;28;20051;-64
2022/08/05 05:38:11;;;;;;;13.80;6.95;;;16.70;99.90;;;;;;5063008;28;20068;-65
2022/08/05 05:40:37;;;;;;;13.00;7.22;;;16.70;99.90;;;;;;5079278;28;20040;-66
2022/08/05 05:43:03;;;;;;;13.48;7.95;;;16.70;99.90;;;;;;5063056;28;20039;-65
2022/08/05 05:45:28;;;;;;;16.80;8.00;;;16.60;99.90;;;;;;5061807;28;20036;-66
2022/08/05 05:47:56;;;;;;;17.98;7.28;;;16.70;99.90;;;;;;5063110;28;20036;-65
2022/08/05 05:50:22;;;;;;;10.43;7.32;;;16.70;99.90;;;;;;5071632;28;20045;-66
2022/08/05 05:52:47;;;;;;;11.60;7.47;;;16.70;99.90;;;;;;5069474;28;20072;-66
2022/08/05 05:55:14;;;;;;;14.40;7.93;;;16.60;99.90;;;;;;5070144;28;20054;-66
2022/08/05 05:57:42;;;;;;;12.18;7.75;;;16.60;99.90;;;;;;5070971;28;20052;-65
2022/08/05 06:00:11;;;;;;;10.38;7.75;;;16.60;99.90;;;;;;5063195;28;20487;-65
2022/08/05 06:02:37;;;;;;;13.02;8.10;;;16.70;99.90;;;;;;5073951;28;20407;-65
2022/08/05 06:05:05;;;;;;;12.80;7.47;;;16.80;99.90;;;;;;5060351;28;20033;-66
2022/08/05 06:07:30;;;;;;;15.25;7.43;;;17.00;99.90;;;;;;5074703;28;20072;-65
2022/08/05 06:09:56;;;;;;;13.15;7.50;;;17.00;99.90;;;;;;5066409;28;20088;-66
2022/08/05 06:12:22;;;;;;;12.68;7.35;;;17.10;99.90;;;;;;5067372;28;20044;-66
2022/08/05 06:14:47;;;;;;;12.43;7.80;;;17.10;99.90;;;;;;5061086;28;20372;-65
2022/08/05 06:17:13;;;;;;;11.75;7.38;;;17.20;99.90;;;;;;5065441;28;20053;-66
2022/08/05 06:19:39;;;;;;;12.50;7.90;;;17.20;99.90;;;;;;5063006;28;20075;-67
2022/08/05 06:22:06;;;;;;;13.27;8.02;;;17.20;99.90;;;;;;5070232;28;20460;-66
2022/08/05 06:24:33;;;;;;;11.77;7.68;;;17.30;99.90;;;;;;5070401;28;20029;-67
2022/08/05 06:26:59;;;;;;;11.82;7.35;;;17.30;99.90;;;;;;5086166;28;20555;-66
2022/08/05 06:29:24;;;;;;;14.35;7.28;;;17.50;99.90;;;;;;5065875;28;20123;-66
2022/08/05 06:31:51;;;;;;;12.48;7.50;;;17.50;99.90;;;;;;5070497;28;20040;-66
2022/08/05 06:34:16;;;;;;;12.48;6.78;;;17.70;99.90;;;;;;5066160;28;20166;-66
2022/08/05 06:36:42;;;;;;;14.88;6.90;;;17.80;99.90;;;;;;5061341;28;20058;-67
2022/08/05 06:39:08;;;;;;;9.73;6.20;;;17.80;99.90;;;;;;5065058;28;20037;-66
2022/08/05 06:41:34;;;;;;;11.57;5.82;;;18.00;99.90;;;;;;5066339;28;20368;-66
2022/08/05 06:43:59;;;;;;;9.07;5.57;;;18.10;99.90;;;;;;5073577;28;20024;-67
2022/08/05 06:46:25;;;;;;;8.85;6.00;;;18.20;99.90;;;;;;5071531;28;20045;-66
2022/08/05 06:48:51;;;;;;;10.38;5.63;;;18.30;99.90;;;;;;5072469;28;20109;-65
2022/08/05 06:51:16;;;;;;;10.88;5.82;;;18.30;99.90;;;;;;5072012;28;20068;-66
2022/08/05 06:53:42;;;;;;;11.30;5.38;;;18.30;99.90;;;;;;5071877;28;20059;-67
2022/08/05 06:56:08;;;;;;;7.78;5.28;;;18.40;99.90;;;;;;5069486;28;20051;-67
2022/08/05 06:58:33;;;;;;;9.85;4.90;;;18.60;99.90;;;;;;5069490;28;20162;-66
2022/08/05 07:01:00;;;;;;;9.40;4.53;;;18.60;99.90;;;;;;5069562;28;20036;-67
2022/08/05 07:03:27;;;;;;;7.13;4.35;;;18.80;99.90;;;;;;5070866;28;20086;-65
2022/08/05 07:05:53;;;;;;;7.65;3.28;;;18.90;99.90;;;;;;5069741;28;20462;-66
2022/08/05 07:08:21;;;;;;;8.25;3.60;;;19.00;99.90;;;;;;5083135;28;20047;-66
2022/08/05 07:10:47;;;;;;;7.20;3.40;;;19.10;99.90;;;;;;5071011;28;20044;-66
2022/08/05 07:18:41;;;;;;;6.40;3.35;;;19.30;99.90;;;;;;5068615;28;20458;-65
2022/08/05 07:21:07;;;;;;;5.72;3.40;;;19.30;99.90;;;;;;5070072;28;20045;-65
2022/08/05 07:23:33;;;;;;;4.65;3.03;;;19.30;99.90;;;;;;5076120;28;20040;-66
2022/08/05 07:25:59;;;;;;;5.00;3.05;;;19.20;99.90;;;;;;5082093;28;20064;-67
2022/08/05 07:28:25;;;;;;;7.63;3.28;;;19.20;99.90;;;;;;5067322;28;20091;-67
2022/08/05 07:30:51;;;;;;;6.10;3.72;;;19.10;99.90;;;;;;5053320;28;20086;-67
2022/08/05 07:33:17;;;;;;;5.43;3.05;;;19.00;99.90;;;;;;5070988;28;20037;-66
2022/08/05 07:35:44;;;;;;;5.15;3.38;;;19.10;99.90;;;;;;5068880;28;20101;-67
2022/08/05 07:38:10;;;;;;;6.35;3.17;;;19.10;99.90;;;;;;5064695;28;20394;-66
2022/08/05 07:40:35;;;;;;;7.70;3.28;;;19.10;99.90;;;;;;5069911;28;20040;-67
2022/08/05 07:43:01;;;;;;;4.40;3.00;;;19.10;99.90;;;;;;5066530;28;20107;-67
2022/08/05 07:45:26;;;;;;;9.55;3.50;;;19.10;99.90;;;;;;5065038;28;20036;-70
2022/08/05 07:47:52;;;;;;;7.05;3.17;;;19.10;99.90;;;;;;5066532;28;20052;-68
2022/08/05 07:50:18;;;;;;;5.22;3.33;;;19.10;99.90;;;;;;5070462;28;20521;-67
2022/08/05 07:52:45;;;;;;;5.30;3.15;;;19.00;99.90;;;;;;5067650;28;20102;-67
2022/08/05 07:55:11;;;;;;;5.13;2.90;;;19.10;99.90;;;;;;5069334;28;20045;-67
2022/08/05 07:57:37;;;;;;;6.55;2.85;;;19.10;99.90;;;;;;5067853;28;20054;-66
2022/08/05 08:00:07;;;;;;;5.10;2.85;;;19.20;99.90;;;;;;5050341;28;20047;-67
2022/08/05 08:02:32;;;;;;;4.30;2.90;;;19.30;99.90;;;;;;5044377;28;20441;-66
2022/08/05 08:04:59;;;;;;;8.52;2.90;;;19.30;99.90;;;;;;5066945;28;20044;-65
2022/08/05 08:07:24;;;;;;;5.10;2.47;;;19.40;99.90;;;;;;5066934;28;20049;-65
2022/08/05 08:09:51;;;;;;;4.43;2.83;;;19.40;99.90;;;;;;5069393;28;20059;-66
2022/08/05 08:12:16;;;;;;;5.75;2.70;;;19.50;99.90;;;;;;5060054;28;20032;-65
2022/08/05 08:14:42;;;;;;;6.40;2.47;;;19.70;99.90;;;;;;5076217;28;20036;-65
2022/08/05 08:17:09;;;;;;;5.13;2.40;;;19.90;99.90;;;;;;5061602;28;20045;-64
2022/08/05 08:19:42;;;;;;;3.95;2.50;;;19.90;99.90;;;;;;5050951;28;20052;-64
2022/08/05 08:22:08;;;;;;;3.28;2.33;;;19.80;99.90;;;;;;5066859;28;20040;-63
2022/08/05 08:24:35;;;;;;;5.80;2.53;;;19.60;99.90;;;;;;5066513;28;20043;-66
2022/08/05 08:27:00;;;;;;;4.90;2.58;;;19.70;99.90;;;;;;5049200;28;20120;-67
2022/08/05 08:29:26;;;;;;;5.60;2.00;;;19.80;99.90;;;;;;5050098;28;20541;-64
2022/08/05 08:31:52;;;;;;;3.47;2.38;;;20.10;99.90;;;;;;5056902;28;20066;-65
2022/08/05 08:34:22;;;;;;;2.47;1.40;;;20.00;99.90;;;;;;5070091;28;20098;-65
2022/08/05 08:36:48;;;;;;;2.55;1.85;;;19.90;99.90;;;;;;5065789;28;20315;-66
2022/08/05 08:39:16;;;;;;;3.20;2.03;;;19.90;99.90;;;;;;5066896;28;20106;-68
2022/08/05 08:41:44;;;;;;;3.88;2.55;;;20.00;99.90;;;;;;5049477;28;20045;-66
2022/08/05 08:44:12;;;;;;;6.32;2.40;;;19.90;99.90;;;;;;5049748;28;20040;-65
2022/08/05 08:46:38;;;;;;;3.15;2.70;;;19.90;99.90;;;;;;5067497;28;20623;-66
2022/08/05 08:49:05;;;;;;;4.88;2.70;;;19.90;99.90;;;;;;5064821;28;20045;-66
2022/08/05 08:51:33;;;;;;;5.32;2.33;;;19.70;99.90;;;;;;5061769;28;20419;-65
2022/08/05 08:53:59;;;;;;;5.57;2.00;;;19.70;99.90;;;;;;5072113;28;20063;-67
2022/08/05 08:56:24;;;;;;;6.10;2.50;;;19.60;99.90;;;;;;5070281;28;20483;-66
2022/08/05 08:58:51;;;;;;;2.40;1.30;;;19.90;99.90;;;;;;5052966;28;20038;-67
2022/08/05 09:01:18;;;;;;;1.90;1.60;;;20.10;99.90;;;;;;5069481;28;20040;-65
2022/08/05 09:03:48;;;;;;;7.10;1.75;;;20.10;99.90;;;;;;5068682;28;20028;-67
2022/08/05 09:06:14;;;;;;;3.35;1.80;;;20.10;99.90;;;;;;5074061;28;20051;-65
2022/08/05 09:08:40;;;;;;;3.83;2.08;;;20.20;99.90;;;;;;5087842;28;20382;-66
2022/08/05 09:11:07;;;;;;;3.38;1.30;;;20.00;99.90;;;;;;5061512;28;20312;-67
2022/08/05 09:13:33;;;;;;;4.18;1.30;;;19.80;99.90;;;;;;5068956;28;20094;-66
2022/08/05 09:15:59;;;;;;;2.15;1.10;;;19.70;99.90;;;;;;5059429;28;20456;-63
2022/08/05 09:18:26;;;;;;;2.53;1.02;;;19.80;99.90;;;;;;5068479;28;20079;-65
2022/08/05 09:20:52;;;;;;;3.15;1.23;;;20.10;99.90;;;;;;5069180;28;20068;-66
2022/08/05 09:23:19;;;;;;;3.08;1.23;;;20.30;99.90;;;;;;5071041;28;20138;-64
2022/08/05 09:25:47;;;;;;;2.35;1.20;;;20.50;99.90;;;;;;5063209;28;20079;-68
2022/08/05 09:28:26;;;;;;;3.35;1.10;;;20.70;99.90;;;;;;5066103;28;20092;-65
2022/08/05 09:31:04;;;;;;;2.45;1.00;;;20.70;99.90;;;;;;5066106;28;20572;-65
2022/08/05 09:33:30;;;;;;;5.57;1.30;;;20.50;99.90;;;;;;5049276;28;20563;-65
2022/08/05 09:36:00;;;;;;;5.05;1.65;;;20.50;99.90;;;;;;5047569;28;20102;-64
2022/08/05 09:38:26;;;;;;;2.67;1.30;;;20.60;99.90;;;;;;5056990;28;20074;-66
2022/08/05 09:40:53;;;;;;;4.25;1.13;;;20.80;99.90;;;;;;5070004;28;20040;-65
2022/08/05 09:43:33;;;;;;;2.30;1.13;;;20.80;99.90;;;;;;5090841;28;20399;-64
2022/08/05 09:45:59;;;;;;;3.45;1.30;;;20.60;99.90;;;;;;5088204;28;20036;-66
2022/08/05 09:48:28;;;;;;;3.85;1.13;;;20.50;99.90;;;;;;5070080;28;20579;-65
2022/08/05 09:50:59;;;;;;;1.95;0.80;;;20.60;99.90;;;;;;5042710;28;20043;-67
2022/08/05 09:53:26;;;;;;;0.57;0.57;;;20.70;99.90;;;;;;5055238;28;20094;-67
2022/08/05 09:55:54;;;;;;;3.28;1.00;;;20.80;97.90;;;;;;5064996;28;20487;-67
2022/08/05 09:58:20;;;;;;;4.07;1.23;;;20.80;99.90;;;;;;5052159;28;20126;-66
2022/08/05 10:01:15;;;;;;;1.65;0.80;;;20.60;99.90;;;;;;5068117;28;20037;-64
2022/08/05 10:03:58;;;;;;;3.88;0.82;;;20.70;99.90;;;;;;5047537;28;20457;-67
2022/08/05 10:06:26;;;;;;;2.63;0.90;;;20.70;99.90;;;;;;5069748;28;20055;-65
2022/08/05 10:08:52;;;;;;;5.28;0.95;;;20.80;99.90;;;;;;5053959;28;20123;-66
2022/08/05 10:11:17;;;;;;;2.65;0.68;;;20.90;99.90;;;;;;5069021;28;20464;-65
2022/08/05 10:13:43;;;;;;;2.78;0.70;;;21.00;99.90;;;;;;5073836;28;20098;-65
2022/08/05 10:16:31;;;;;;;1.85;0.73;;;20.80;99.90;;;;;;5052804;28;20075;-67
2022/08/05 10:18:57;;;;;;;2.05;0.68;;;20.60;99.90;;;;;;5070155;28;20418;-65
2022/08/05 10:21:23;;;;;;;1.05;0.70;;;20.60;99.90;;;;;;5073143;28;20036;-65
2022/08/05 10:23:49;;;;;;;2.58;0.82;;;20.50;99.60;;;;;;5072889;28;20056;-66
2022/08/05 10:26:14;;;;;;;2.00;1.10;;;20.50;99.90;;;;;;5064661;28;20040;-67
2022/08/05 10:28:42;;;;;;;4.50;1.05;;;20.50;99.90;;;;;;5068563;28;20036;-65
2022/08/05 10:31:07;;;;;;;3.97;0.60;;;20.50;99.90;;;;;;5066135;28;20383;-64
2022/08/05 10:33:34;;;;;;;5.32;1.20;;;20.70;98.90;;;;;;5071442;28;20040;-66
2022/08/05 10:36:04;;;;;;;4.00;0.77;;;20.80;99.40;;;;;;5058942;28;20032;-64
2022/08/05 10:38:31;;;;;;;1.60;0.60;;;20.80;99.90;;;;;;5065450;28;20040;-64
2022/08/05 10:41:16;;;;;;;4.07;0.90;;;20.80;99.20;;;;;;5071867;28;20044;-65
2022/08/05 10:43:59;;;;;;;3.70;0.65;;;20.90;99.10;;;;;;5073127;28;20032;-66
2022/08/05 10:46:46;;;;;;;1.27;0.60;;;21.00;96.80;;;;;;5046703;28;20174;-67
2022/08/05 10:49:12;;;;;;;2.53;0.52;;;21.00;95.50;;;;;;5086912;28;20044;-66
2022/08/05 10:51:56;;;;;;;1.02;0.63;;;21.00;95.90;;;;;;5069477;28;20044;-66
2022/08/05 10:54:24;;;;;;;1.48;0.50;;;21.00;96.50;;;;;;5072237;28;20037;-65
2022/08/05 10:56:54;;;;;;;1.05;0.60;;;21.20;93.50;;;;;;5062667;28;20558;-66
2022/08/05 10:59:28;;;;;;;1.77;0.60;;;21.20;95.10;;;;;;5082423;28;20044;-65
2022/08/05 11:02:08;;;;;;;0.52;0.50;;;21.20;94.40;;;;;;5066491;28;20024;-68
2022/08/05 11:04:44;;;;;;;1.55;0.50;;;21.30;94.40;;;;;;5061624;28;20037;-66
2022/08/05 11:07:14;;;;;;;1.23;0.47;;;21.30;91.70;;;;;;5070457;28;20041;-66
2022/08/05 11:09:53;;;;;;;1.95;0.60;;;21.50;92.60;;;;;;5069491;28;20444;-66
2022/08/05 11:12:38;;;;;;;1.13;0.47;;;21.50;91.90;;;;;;5069197;28;20052;-68
2022/08/05 11:15:09;;;;;;;2.03;0.55;;;21.60;92.40;;;;;;5067554;28;20175;-67
2022/08/05 11:17:38;;;;;;;1.73;0.50;;;21.50;90.50;;;;;;5050311;28;20061;-66
2022/08/05 11:20:28;;;;;;;0.50;0.50;;;21.50;88.70;;;;;;5054534;28;20086;-65
2022/08/05 11:22:53;;;;;;;3.20;0.55;;;21.50;87.90;;;;;;5069086;28;20125;-67
2022/08/05 11:25:42;;;;;;;2.13;0.50;;;21.20;86.00;;;;;;5071424;28;20079;-66
2022/08/05 11:28:11;;;;;;;1.60;0.68;;;21.00;82.70;;;;;;5052019;28;20136;-65
2022/08/05 11:31:01;;;;;;;1.88;0.50;;;21.10;83.10;;;;;;5070995;28;20677;-68
2022/08/05 11:33:31;;;;;;;7.85;0.63;;;21.00;85.50;;;;;;5070713;28;20043;-67
2022/08/05 11:35:59;;;;;;;1.17;0.40;;;20.90;90.40;;;;;;5065256;28;20048;-66
2022/08/05 11:38:43;;;;;;;5.25;0.55;;;21.00;90.90;;;;;;5074718;28;20055;-65
2022/08/05 11:41:17;;;;;;;2.15;0.60;;;21.00;90.90;;;;;;5080834;28;20410;-67
2022/08/05 11:43:59;;;;;;;0.60;0.60;;;20.80;91.40;;;;;;5070210;28;20036;-65
2022/08/05 11:46:40;;;;;;;3.00;0.53;;;20.70;91.30;;;;;;5067651;28;20040;-66
2022/08/05 11:49:07;;;;;;;3.97;0.50;;;20.50;91.20;;;;;;5071031;28;20529;-65
2022/08/05 11:51:36;;;;;;;2.47;0.50;;;20.50;93.30;;;;;;5048631;28;20048;-68
2022/08/05 11:54:02;;;;;;;1.85;0.50;;;20.60;92.70;;;;;;5058407;28;20056;-67
2022/08/05 11:56:48;;;;;;;1.48;0.68;;;20.80;92.80;;;;;;5064723;28;20037;-67
2022/08/05 11:59:16;;;;;;;1.77;0.60;;;21.00;93.60;;;;;;5062213;28;20049;-67
2022/08/05 12:01:59;;;;;;;2.10;0.55;;;21.10;93.40;;;;;;5050311;28;20059;-66
2022/08/05 12:04:36;;;;;;;3.50;0.50;;;20.90;94.20;;;;;;5070283;28;20502;-65
2022/08/05 12:07:04;;;;;;;5.20;0.60;;;20.60;93.30;;;;;;5062993;28;20052;-65
2022/08/05 12:09:35;;;;;;;4.13;0.65;;;20.40;93.40;;;;;;5068269;28;20131;-65
2022/08/05 12:12:00;;;;;;;2.28;0.80;;;20.50;94.90;;;;;;5062209;28;20059;-67
2022/08/05 12:14:38;;;;;;;2.88;0.60;;;20.50;97.00;;;;;;5069716;28;20048;-66
2022/08/05 12:17:08;;;;;;;0.73;0.40;;;20.50;98.10;;;;;;5066347;28;20426;-65
2022/08/05 12:19:42;;;;;;;1.15;0.50;;;20.30;97.60;;;;;;5069556;28;20055;-66
2022/08/05 12:22:07;;;;;;;2.83;0.57;;;20.20;98.60;;;;;;5069106;28;20033;-66
2022/08/05 12:24:33;;;;;;;2.15;0.50;;;20.20;99.90;;;;;;5069720;28;20047;-65
2022/08/05 12:27:00;;;;;;;1.73;0.52;;;20.30;99.90;;;;;;5065361;28;20040;-64
2022/08/05 12:29:28;;;;;;;1.02;0.65;;;20.30;99.40;;;;;;5072385;28;20045;-66
2022/08/05 12:31:58;;;;;;;1.92;0.50;;;20.20;99.40;;;;;;5071524;28;20044;-65
2022/08/05 12:34:30;;;;;;;2.75;0.57;;;20.00;99.90;;;;;;5070908;28;20125;-66
2022/08/05 12:37:15;;;;;;;3.65;0.60;;;19.90;99.50;;;;;;5067909;28;20051;-67
2022/08/05 12:39:41;;;;;;;2.25;0.50;;;19.80;99.70;;;;;;5065643;28;20036;-65
2022/08/05 12:42:12;;;;;;;3.85;0.77;;;19.70;99.90;;;;;;5068364;28;20204;-66
2022/08/05 12:44:38;;;;;;;2.92;0.60;;;19.80;99.90;;;;;;5049539;28;20049;-66
2022/08/05 12:47:04;;;;;;;3.50;0.65;;;19.80;99.90;;;;;;5066410;28;20075;-65
2022/08/05 12:49:45;;;;;;;0.50;0.50;;;19.90;99.90;;;;;;5065394;28;20049;-66
2022/08/05 12:52:17;;;;;;;1.13;0.77;;;20.00;99.90;;;;;;5069935;28;20537;-66
2022/08/05 12:54:45;;;;;;;3.93;0.90;;;20.10;99.90;;;;;;5069572;28;20068;-66